Hauptseite
METAR-TAF:

METAR-TAF

Flughäfen :

Dallas/Fort Worth International Airport

Dallas / Fort Worth, Texas, Vereinigte Staaten

Breite: 32-53-49N, Länge: 097-01-19W, Höhe: 183 m

Beobachtung

Neuester Wetterbericht von vor 47 Minuten, um 06:53 UTC
Wind 12 kt aus Süd
Temperatur 27°C
Luftfeuchtigkeit 70%
Luftdruck 1019 hPa
Sichtweite: 16.1 km
Leicht bewölkt in der Höhe von 25000 ft

METAR: KDFW 130653Z 19012KT 10SM FEW250 27/21 A3009 RMK AO2 SLP179 T02670211

Zeit: 02:40 (07:40 UTC)

Prognose

Neuester Wetterbericht von vor 2 Stunden und 20 Minuten, um 05:20 UTC
Gültige Prognose vom 13 um 06 UTC bis 14 um 12 UTC
Wind 12 kt aus Süd
Sichtweite: 10 km
Leicht bewölkt in der Höhe von 25000 ft

TAF: KDFW 130520Z 1306/1412 17012KT P6SM FEW250

Wetterbeobachtungen und Prognosen von mehr als 4000 Flughäfen (METAR und TAF Bericht).

Die verfügbaren Stationen werden durch gelbe und rote Markierungen auf der Karte dargestellt.

Führen Sie die Maus auf sie, um den Namen der Station zu sehen.

Darauf klicken, um die Beobachtung von Wetterbeobachtungen und Prognosen zu sehen.

Um die Karte zu ändern : klicken Sie auf den grünen Tasten mit einem schwarzen Kreuz Zum Vergrößern, auf den grünen Button mit einem Gedankenstrich zu verkleinern, oder auf die grünen Pfeile für benachbarte Karten.


METAR-TAF: